createdAt,value
2023-05-01T00:01:46.168Z,98385.58
2023-05-01T00:04:14.208Z,98386.11
2023-05-01T00:06:42.467Z,98388.09
2023-05-01T00:09:10.692Z,98390.04
2023-05-01T00:11:38.589Z,98391.61
2023-05-01T00:14:06.486Z,98387.95
2023-05-01T00:16:36.307Z,98385.03
2023-05-01T00:19:05.103Z,98389.95
2023-05-01T00:21:33.076Z,98387.80
2023-05-01T00:24:00.998Z,98382.78
2023-05-01T00:26:31.423Z,98385.59
2023-05-01T00:28:59.432Z,98386.49
2023-05-01T00:31:27.410Z,98386.06
2023-05-01T00:33:55.702Z,98384.79
2023-05-01T00:36:24.248Z,98385.52
2023-05-01T00:38:52.570Z,98380.36
2023-05-01T00:41:21.391Z,98378.66
2023-05-01T00:43:49.363Z,98378.62
2023-05-01T00:46:18.423Z,98376.52
2023-05-01T00:48:46.388Z,98376.83
2023-05-01T00:51:15.350Z,98380.95
2023-05-01T00:53:43.487Z,98381.10
2023-05-01T00:56:12.089Z,98379.31
2023-05-01T00:58:40.794Z,98381.46
2023-05-01T01:01:10.155Z,98382.05
2023-05-01T01:03:38.423Z,98380.67
2023-05-01T01:06:20.382Z,98384.41
2023-05-01T01:09:08.310Z,98388.05
2023-05-01T01:11:46.612Z,98389.93
2023-05-01T01:14:28.919Z,98392.66
2023-05-01T01:17:05.029Z,98388.62
2023-05-01T01:19:57.656Z,98385.34
2023-05-01T01:22:28.045Z,98381.88
2023-05-01T01:25:10.930Z,98386.15
2023-05-01T01:28:23.434Z,98384.59
2023-05-01T01:31:09.913Z,98382.58
2023-05-01T01:34:13.124Z,98382.54
2023-05-01T01:36:56.070Z,98380.98
2023-05-01T01:39:30.121Z,98376.90
2023-05-01T01:42:00.112Z,98381.36
2023-05-01T01:44:37.820Z,98375.84
2023-05-01T01:47:10.982Z,98382.14
2023-05-01T01:49:44.579Z,98381.33
2023-05-01T01:52:15.298Z,98376.27
2023-05-01T01:54:54.645Z,98377.08
2023-05-01T01:57:25.204Z,98376.60
2023-05-01T01:59:55.505Z,98372.64
2023-05-01T02:02:27.401Z,98372.14
2023-05-01T02:04:57.472Z,98370.29
2023-05-01T02:07:28.653Z,98367.02
2023-05-01T02:09:58.890Z,98360.17
2023-05-01T02:12:28.711Z,98360.89
2023-05-01T02:14:58.914Z,98356.73
2023-05-01T02:17:28.783Z,98354.14
2023-05-01T02:19:58.406Z,98352.34
2023-05-01T02:22:27.415Z,98348.89
2023-05-01T02:25:00.008Z,98347.34
2023-05-01T02:27:34.209Z,98343.72
2023-05-01T02:30:02.170Z,98344.47
2023-05-01T02:32:32.072Z,98341.63
2023-05-01T02:35:00.584Z,98337.88
2023-05-01T02:37:30.897Z,98339.05
2023-05-01T02:39:59.382Z,98333.30
2023-05-01T02:42:29.402Z,98334.45
2023-05-01T02:45:00.363Z,98331.95
2023-05-01T02:47:30.285Z,98325.38
2023-05-01T02:50:00.420Z,98324.66
2023-05-01T02:52:29.453Z,98325.98
2023-05-01T02:55:05.833Z,98323.44
2023-05-01T02:57:34.628Z,98320.49
2023-05-01T03:00:02.643Z,98321.09
2023-05-01T03:02:30.581Z,98324.27
2023-05-01T03:04:58.470Z,98323.18
2023-05-01T03:07:26.416Z,98326.86
2023-05-01T03:09:54.507Z,98324.95
2023-05-01T03:12:24.085Z,98327.70
2023-05-01T03:14:52.155Z,98327.76
2023-05-01T03:17:20.171Z,98325.66
2023-05-01T03:19:49.208Z,98321.29
2023-05-01T03:22:17.796Z,98316.05
2023-05-01T03:24:47.604Z,98316.89
2023-05-01T03:27:15.631Z,98316.64
2023-05-01T03:29:43.577Z,98316.01
2023-05-01T03:32:11.708Z,98313.77
2023-05-01T03:34:40.033Z,98313.02
2023-05-01T03:37:08.278Z,98315.67
2023-05-01T03:39:37.221Z,98312.75
2023-05-01T03:42:28.138Z,98309.67
2023-05-01T03:45:01.221Z,98310.79
2023-05-01T03:47:29.931Z,98308.23
2023-05-01T03:49:58.429Z,98308.95
2023-05-01T03:52:27.066Z,98308.42
2023-05-01T03:54:57.299Z,98308.40
2023-05-01T03:57:33.989Z,98313.79
2023-05-01T04:00:03.414Z,98313.73
2023-05-01T04:02:32.484Z,98309.52
2023-05-01T04:05:00.948Z,98309.52
2023-05-01T04:07:30.859Z,98309.33
2023-05-01T04:09:58.801Z,98303.70
2023-05-01T04:12:26.873Z,98301.58
2023-05-01T04:14:54.787Z,98299.61
2023-05-01T04:17:23.748Z,98299.89
2023-05-01T04:19:52.536Z,98300.73
2023-05-01T04:22:22.051Z,98300.05
2023-05-01T04:24:50.337Z,98299.05
2023-05-01T04:27:19.840Z,98294.38
2023-05-01T04:29:47.766Z,98292.91
2023-05-01T04:32:20.053Z,98291.98
2023-05-01T04:34:48.011Z,98300.73
2023-05-01T04:37:18.799Z,98296.80
2023-05-01T04:39:47.107Z,98297.94
2023-05-01T04:42:15.130Z,98291.35
2023-05-01T04:44:43.243Z,98291.40
2023-05-01T04:47:12.342Z,98285.48
2023-05-01T04:49:40.392Z,98290.05
2023-05-01T04:52:08.410Z,98290.88
2023-05-01T04:54:50.003Z,98290.99
2023-05-01T04:57:18.601Z,98291.90
2023-05-01T04:59:47.881Z,98291.46
2023-05-01T05:02:15.821Z,98290.05
2023-05-01T05:04:43.749Z,98290.27
2023-05-01T05:07:11.757Z,98291.34
2023-05-01T05:10:02.587Z,98287.13
2023-05-01T05:12:31.004Z,98289.66
2023-05-01T05:14:59.141Z,98288.12
2023-05-01T05:17:29.976Z,98286.23
2023-05-01T05:19:58.254Z,98283.33
2023-05-01T05:22:26.486Z,98281.59
2023-05-01T05:25:14.355Z,98283.25
2023-05-01T05:27:42.274Z,98284.97
2023-05-01T05:30:10.692Z,98281.19
2023-05-01T05:32:38.906Z,98281.23
2023-05-01T05:35:07.292Z,98282.88
2023-05-01T05:37:35.301Z,98281.23
2023-05-01T05:40:04.124Z,98286.48
2023-05-01T05:42:35.834Z,98288.38
2023-05-01T05:45:07.486Z,98286.55
2023-05-01T05:47:35.713Z,98286.48
2023-05-01T05:50:04.652Z,98286.37
2023-05-01T05:52:34.032Z,98284.70
2023-05-01T05:55:03.862Z,98286.23
2023-05-01T05:57:31.854Z,98289.70
2023-05-01T06:00:00.370Z,98291.71
2023-05-01T06:02:29.207Z,98290.73
2023-05-01T06:04:58.058Z,98293.69
2023-05-01T06:07:29.101Z,98288.04
2023-05-01T06:10:02.928Z,98288.48
2023-05-01T06:12:31.994Z,98286.70
2023-05-01T06:15:00.957Z,98290.83
2023-05-01T06:17:29.601Z,98293.13
2023-05-01T06:19:58.054Z,98293.43
2023-05-01T06:22:26.315Z,98299.14
2023-05-01T06:25:04.922Z,98296.81
2023-05-01T06:27:32.948Z,98296.43
2023-05-01T06:30:01.320Z,98294.61
2023-05-01T06:32:29.301Z,98295.07
2023-05-01T06:34:57.173Z,98297.98
2023-05-01T06:37:25.838Z,98295.96
2023-05-01T06:39:54.308Z,98298.60
2023-05-01T06:42:22.691Z,98300.80
2023-05-01T06:44:50.824Z,98301.94
2023-05-01T06:47:18.802Z,98307.18
2023-05-01T06:49:46.719Z,98303.27
2023-05-01T06:52:14.636Z,98299.72
2023-05-01T06:54:42.546Z,98292.37
2023-05-01T06:57:10.493Z,98290.76
2023-05-01T06:59:38.409Z,98289.39
2023-05-01T07:02:06.430Z,98287.27
2023-05-01T07:04:34.698Z,98288.48
2023-05-01T07:07:03.459Z,98283.13
2023-05-01T07:09:31.380Z,98277.46
2023-05-01T07:11:59.356Z,98283.89
2023-05-01T07:14:27.269Z,98280.23
2023-05-01T07:16:55.773Z,98285.05
2023-05-01T07:19:23.889Z,98289.96
2023-05-01T07:21:51.789Z,98285.20
2023-05-01T07:24:20.469Z,98288.23
2023-05-01T07:26:48.399Z,98282.39
2023-05-01T07:29:16.799Z,98285.09
2023-05-01T07:31:46.252Z,98288.66
2023-05-01T07:34:14.206Z,98283.98
2023-05-01T07:36:42.122Z,98287.14
2023-05-01T07:39:10.122Z,98284.34
2023-05-01T07:41:38.388Z,98287.67
2023-05-01T07:44:06.468Z,98287.36
2023-05-01T07:46:35.372Z,98281.88
2023-05-01T07:49:04.393Z,98285.71
2023-05-01T07:51:32.849Z,98288.27
2023-05-01T07:54:04.758Z,98287.30
2023-05-01T07:56:33.065Z,98295.34
2023-05-01T07:59:00.973Z,98293.77
2023-05-01T08:01:28.919Z,98290.98
2023-05-01T08:03:56.968Z,98286.89
2023-05-01T08:06:25.251Z,98288.84
2023-05-01T08:08:53.184Z,98288.59
2023-05-01T08:11:21.138Z,98289.21
2023-05-01T08:13:49.048Z,98287.51
2023-05-01T08:16:17.303Z,98283.31
2023-05-01T08:18:46.635Z,98279.84
2023-05-01T08:21:14.564Z,98281.02
2023-05-01T08:23:42.560Z,98278.81
2023-05-01T08:26:10.480Z,98277.58
2023-05-01T08:28:38.467Z,98277.11
2023-05-01T08:31:06.298Z,98277.30
2023-05-01T08:33:34.289Z,98280.79
2023-05-01T08:36:02.188Z,98279.15
2023-05-01T08:38:30.121Z,98281.77
2023-05-01T08:40:59.887Z,98283.61
2023-05-01T08:43:31.019Z,98282.64
2023-05-01T08:46:06.069Z,98278.84
2023-05-01T08:48:36.934Z,98271.80
2023-05-01T08:51:06.178Z,98268.45
2023-05-01T08:53:34.866Z,98267.37
2023-05-01T08:56:07.862Z,98263.52
2023-05-01T08:58:37.089Z,98266.86
2023-05-01T09:01:06.327Z,98273.09
2023-05-01T09:03:35.875Z,98271.11
2023-05-01T09:06:04.405Z,98262.12
2023-05-01T09:08:32.468Z,98257.99
2023-05-01T09:11:01.730Z,98253.13
2023-05-01T09:13:30.991Z,98247.88
2023-05-01T09:16:00.761Z,98248.11
2023-05-01T09:18:28.782Z,98244.19
2023-05-01T09:20:57.585Z,98238.69
2023-05-01T09:23:25.523Z,98241.57
2023-05-01T09:25:54.081Z,98239.45
2023-05-01T09:28:48.721Z,98236.51
2023-05-01T09:31:28.984Z,98231.41
2023-05-01T09:34:02.768Z,98234.69
2023-05-01T09:36:33.147Z,98233.14
2023-05-01T09:39:02.282Z,98229.98
2023-05-01T09:41:33.152Z,98227.86
2023-05-01T09:44:01.738Z,98221.37
2023-05-01T09:46:42.033Z,98217.66
2023-05-01T09:49:10.454Z,98215.48
2023-05-01T09:51:38.724Z,98212.58
2023-05-01T09:54:19.280Z,98207.95
2023-05-01T09:56:48.937Z,98209.89
2023-05-01T09:59:21.114Z,98210.05
2023-05-01T10:01:50.680Z,98207.14
2023-05-01T10:04:30.823Z,98200.64
2023-05-01T10:07:11.391Z,98196.33
2023-05-01T10:09:39.868Z,98202.80
2023-05-01T10:12:07.818Z,98199.19
2023-05-01T10:14:50.642Z,98202.38
2023-05-01T10:17:21.513Z,98206.32
2023-05-01T10:19:51.600Z,98198.32
2023-05-01T10:22:19.600Z,98192.73
2023-05-01T10:24:47.776Z,98194.05
2023-05-01T10:27:17.475Z,98190.08
2023-05-01T10:29:48.128Z,98190.42
2023-05-01T10:32:16.119Z,98185.13
2023-05-01T10:34:50.475Z,98183.61
2023-05-01T10:37:24.895Z,98187.55
2023-05-01T10:39:52.805Z,98184.17
2023-05-01T10:42:21.100Z,98181.08
2023-05-01T10:44:49.737Z,98178.11
2023-05-01T10:47:31.506Z,98177.63
2023-05-01T10:50:09.760Z,98172.95
2023-05-01T10:53:12.624Z,98174.47
2023-05-01T10:55:49.340Z,98166.42
2023-05-01T10:58:43.944Z,98165.73
2023-05-01T11:01:32.901Z,98165.30
2023-05-01T11:04:04.505Z,98165.67
2023-05-01T11:06:32.997Z,98156.77
2023-05-01T11:09:02.668Z,98155.53
2023-05-01T11:11:30.547Z,98153.48
2023-05-01T11:14:11.308Z,98154.65
2023-05-01T11:16:42.244Z,98154.23
2023-05-01T11:19:22.742Z,98154.84
2023-05-01T11:21:54.381Z,98147.70
2023-05-01T11:24:32.273Z,98146.45
2023-05-01T11:27:00.443Z,98143.95
2023-05-01T11:29:35.255Z,98134.61
2023-05-01T11:32:03.365Z,98128.16
2023-05-01T11:34:37.987Z,98130.11
2023-05-01T11:37:06.150Z,98126.64
2023-05-01T11:39:35.155Z,98124.41
2023-05-01T11:42:10.115Z,98118.13
2023-05-01T11:44:38.340Z,98115.59
2023-05-01T11:47:07.635Z,98110.61
2023-05-01T11:49:35.644Z,98119.05
2023-05-01T11:52:03.675Z,98112.06
2023-05-01T11:54:31.650Z,98111.11
2023-05-01T11:57:01.075Z,98106.81
2023-05-01T11:59:30.728Z,98106.40
2023-05-01T12:01:58.826Z,98104.67
2023-05-01T12:04:31.646Z,98100.54
2023-05-01T12:07:00.319Z,98092.53
2023-05-01T12:09:29.386Z,98097.14
2023-05-01T12:11:59.866Z,98094.90
2023-05-01T12:14:28.085Z,98094.70
2023-05-01T12:16:57.271Z,98092.61
2023-05-01T12:19:26.027Z,98085.92
2023-05-01T12:22:07.735Z,98081.42
2023-05-01T12:24:36.160Z,98074.51
2023-05-01T12:27:04.327Z,98075.54
2023-05-01T12:29:42.837Z,98068.05
2023-05-01T12:32:11.170Z,98064.43
2023-05-01T12:34:40.326Z,98063.52
2023-05-01T12:37:09.084Z,98060.54
2023-05-01T12:39:39.309Z,98061.23
2023-05-01T12:42:15.182Z,98058.47
2023-05-01T12:44:44.148Z,98054.03
2023-05-01T12:47:12.970Z,98048.83
2023-05-01T12:49:41.651Z,98050.82
2023-05-01T12:52:09.887Z,98045.70
2023-05-01T12:54:43.773Z,98043.88
2023-05-01T12:57:18.013Z,98038.50
2023-05-01T12:59:47.427Z,98034.39
2023-05-01T13:02:18.156Z,98033.27
2023-05-01T13:04:49.998Z,98032.96
2023-05-01T13:07:19.435Z,98021.61
2023-05-01T13:09:58.910Z,98019.54
2023-05-01T13:12:28.759Z,98009.39
2023-05-01T13:14:57.693Z,98008.08
2023-05-01T13:17:32.502Z,98006.23
2023-05-01T13:20:05.060Z,98003.70
2023-05-01T13:22:38.164Z,98001.92
2023-05-01T13:25:17.528Z,98001.80
2023-05-01T13:27:53.396Z,98000.24
2023-05-01T13:30:32.588Z,98000.59
2023-05-01T13:33:02.014Z,97994.84
2023-05-01T13:35:30.963Z,97992.48
2023-05-01T13:37:58.857Z,97991.67
2023-05-01T13:40:27.942Z,97991.71
2023-05-01T13:42:55.836Z,97985.71
2023-05-01T13:45:24.874Z,97982.91
2023-05-01T13:47:52.909Z,97980.56
2023-05-01T13:50:21.672Z,97980.31
2023-05-01T13:52:49.716Z,97978.98
2023-05-01T13:55:17.960Z,97981.14
2023-05-01T13:57:46.036Z,97978.96
2023-05-01T14:00:18.089Z,97973.30
2023-05-01T14:02:48.995Z,97970.24
2023-05-01T14:05:23.578Z,97968.32
2023-05-01T14:07:55.452Z,97963.50
2023-05-01T14:10:26.490Z,97962.59
2023-05-01T14:13:01.342Z,97955.78
2023-05-01T14:15:29.779Z,97954.34
2023-05-01T14:18:01.066Z,97953.40
2023-05-01T14:20:29.250Z,97947.84
2023-05-01T14:22:58.936Z,97946.60
2023-05-01T14:25:29.979Z,97942.12
2023-05-01T14:28:00.422Z,97935.66
2023-05-01T14:30:33.688Z,97935.42
2023-05-01T14:33:03.733Z,97933.47
2023-05-01T14:35:32.103Z,97930.08
2023-05-01T14:38:15.310Z,97929.76
2023-05-01T14:40:44.946Z,97928.66
2023-05-01T14:43:18.652Z,97929.19
2023-05-01T14:45:46.921Z,97930.05
2023-05-01T14:48:26.265Z,97925.09
2023-05-01T14:50:55.110Z,97920.82
2023-05-01T14:53:23.447Z,97918.45
2023-05-01T14:55:54.278Z,97915.02
2023-05-01T14:58:22.262Z,97914.96
2023-05-01T15:00:50.218Z,97917.56
2023-05-01T15:03:18.460Z,97911.41
2023-05-01T15:05:46.637Z,97917.16
2023-05-01T15:08:14.675Z,97911.80
2023-05-01T15:10:43.697Z,97911.97
2023-05-01T15:13:11.750Z,97913.38
2023-05-01T15:15:39.679Z,97909.29
2023-05-01T15:18:07.746Z,97904.48
2023-05-01T15:20:35.928Z,97902.17
2023-05-01T15:23:03.826Z,97905.18
2023-05-01T15:25:32.420Z,97900.73
2023-05-01T15:28:00.401Z,97897.08
2023-05-01T15:30:29.791Z,97896.64
2023-05-01T15:32:57.838Z,97891.02
2023-05-01T15:35:26.336Z,97892.36
2023-05-01T15:37:55.736Z,97892.85
2023-05-01T15:40:23.693Z,97888.02
2023-05-01T15:42:51.766Z,97889.36
2023-05-01T15:45:20.102Z,97890.77
2023-05-01T15:47:48.206Z,97890.04
2023-05-01T15:50:16.309Z,97889.04
2023-05-01T15:52:44.215Z,97886.33
2023-05-01T15:55:12.613Z,97884.76
2023-05-01T15:57:40.558Z,97880.89
2023-05-01T16:00:09.710Z,97884.88
2023-05-01T16:02:37.745Z,97887.09
2023-05-01T16:05:06.543Z,97884.72
2023-05-01T16:07:35.020Z,97879.13
2023-05-01T16:10:04.408Z,97875.97
2023-05-01T16:12:32.736Z,97878.28
2023-05-01T16:15:03.457Z,97876.94
2023-05-01T16:17:33.900Z,97867.94
2023-05-01T16:20:02.596Z,97868.45
2023-05-01T16:22:32.894Z,97863.47
2023-05-01T16:25:01.333Z,97859.02
2023-05-01T16:27:29.333Z,97859.69
2023-05-01T16:29:57.642Z,97859.77
2023-05-01T16:32:26.726Z,97863.16
2023-05-01T16:34:54.643Z,97862.21
2023-05-01T16:37:24.770Z,97862.52
2023-05-01T16:39:52.887Z,97864.02
2023-05-01T16:42:21.220Z,97860.52
2023-05-01T16:44:49.152Z,97852.87
2023-05-01T16:47:17.582Z,97856.42
2023-05-01T16:49:46.865Z,97852.79
2023-05-01T16:52:15.988Z,97851.42
2023-05-01T16:54:43.897Z,97850.95
2023-05-01T16:57:11.851Z,97854.80
2023-05-01T16:59:39.695Z,97854.56
2023-05-01T17:02:07.986Z,97858.09
2023-05-01T17:04:36.264Z,97855.04
2023-05-01T17:07:04.188Z,97853.79
2023-05-01T17:09:32.453Z,97848.17
2023-05-01T17:12:00.313Z,97848.03
2023-05-01T17:14:29.038Z,97847.36
2023-05-01T17:16:59.956Z,97846.43
2023-05-01T17:19:28.044Z,97846.52
2023-05-01T17:21:58.145Z,97847.55
2023-05-01T17:24:27.124Z,97847.77
2023-05-01T17:26:55.624Z,97841.10
2023-05-01T17:29:24.624Z,97838.81
2023-05-01T17:31:52.719Z,97838.98
2023-05-01T17:34:21.256Z,97838.35
2023-05-01T17:36:49.232Z,97839.80
2023-05-01T17:39:17.158Z,97836.79
2023-05-01T17:41:45.358Z,97833.88
2023-05-01T17:44:13.299Z,97829.80
2023-05-01T17:46:41.283Z,97828.59
2023-05-01T17:49:09.157Z,97826.44
2023-05-01T17:51:37.544Z,97831.27
2023-05-01T17:54:06.166Z,97829.46
2023-05-01T17:56:34.142Z,97825.38
2023-05-01T17:59:02.080Z,97829.14
2023-05-01T18:01:30.936Z,97832.91
2023-05-01T18:04:01.875Z,97835.94
2023-05-01T18:06:30.037Z,97834.17
2023-05-01T18:08:58.457Z,97835.36
2023-05-01T18:11:26.443Z,97840.86
2023-05-01T18:13:54.452Z,97841.67
2023-05-01T18:16:23.535Z,97838.70
2023-05-01T18:18:51.580Z,97836.92
2023-05-01T18:21:19.559Z,97838.15
2023-05-01T18:23:48.897Z,97839.01
2023-05-01T18:26:17.568Z,97841.95
2023-05-01T18:28:46.029Z,97842.63
2023-05-01T18:31:16.174Z,97842.21
2023-05-01T18:33:44.532Z,97837.27
2023-05-01T18:36:14.840Z,97835.08
2023-05-01T18:38:42.973Z,97833.44
2023-05-01T18:41:10.936Z,97839.23
2023-05-01T18:43:38.839Z,97837.00
2023-05-01T18:46:07.207Z,97837.97
2023-05-01T18:48:35.100Z,97837.33
2023-05-01T18:51:08.924Z,97838.65
2023-05-01T18:53:37.132Z,97837.90
2023-05-01T18:56:06.140Z,97838.98
2023-05-01T18:58:34.124Z,97839.00
2023-05-01T19:01:02.586Z,97843.52
2023-05-01T19:03:30.516Z,97839.45
2023-05-01T19:05:58.603Z,97842.05
2023-05-01T19:08:26.576Z,97841.06
2023-05-01T19:10:54.455Z,97839.39
2023-05-01T19:13:22.429Z,97837.30
2023-05-01T19:15:50.416Z,97839.73
2023-05-01T19:18:18.365Z,97836.10
2023-05-01T19:20:46.301Z,97836.52
2023-05-01T19:23:14.224Z,97835.92
2023-05-01T19:25:42.102Z,97834.63
2023-05-01T19:28:10.036Z,97835.34
2023-05-01T19:30:37.962Z,97834.58
2023-05-01T19:33:06.162Z,97833.27
2023-05-01T19:35:35.330Z,97832.06
2023-05-01T19:38:03.342Z,97827.42
2023-05-01T19:40:32.099Z,97825.92
2023-05-01T19:43:00.620Z,97824.21
2023-05-01T19:45:28.558Z,97823.09
2023-05-01T19:47:56.547Z,97825.20
2023-05-01T19:50:24.511Z,97828.48
2023-05-01T19:52:53.246Z,97826.45
2023-05-01T19:55:21.423Z,97828.01
2023-05-01T19:57:49.364Z,97825.75
2023-05-01T20:00:17.802Z,97820.59
2023-05-01T20:02:45.840Z,97822.25
2023-05-01T20:05:14.438Z,97819.58
2023-05-01T20:07:42.406Z,97822.02
2023-05-01T20:10:10.556Z,97822.53
2023-05-01T20:12:38.512Z,97820.02
2023-05-01T20:15:07.030Z,97817.24
2023-05-01T20:17:35.466Z,97812.89
2023-05-01T20:20:03.865Z,97807.63
2023-05-01T20:22:31.750Z,97811.70
2023-05-01T20:24:59.668Z,97806.20
2023-05-01T20:27:27.621Z,97808.66
2023-05-01T20:29:55.536Z,97811.17
2023-05-01T20:32:23.514Z,97811.85
2023-05-01T20:34:52.634Z,97806.73
2023-05-01T20:37:20.952Z,97810.27
2023-05-01T20:39:48.846Z,97810.99
2023-05-01T20:42:16.930Z,97816.08
2023-05-01T20:44:44.911Z,97819.25
2023-05-01T20:47:13.996Z,97823.66
2023-05-01T20:49:41.900Z,97822.96
2023-05-01T20:52:09.937Z,97827.70
2023-05-01T20:54:37.807Z,97828.74
2023-05-01T20:57:05.748Z,97829.56
2023-05-01T20:59:33.943Z,97834.94
2023-05-01T21:02:05.225Z,97831.63
2023-05-01T21:04:33.338Z,97836.89
2023-05-01T21:07:01.285Z,97841.86
2023-05-01T21:09:29.304Z,97845.70
2023-05-01T21:11:57.211Z,97847.62
2023-05-01T21:14:27.883Z,97848.42
2023-05-01T21:16:55.936Z,97846.17
2023-05-01T21:19:24.092Z,97855.79
2023-05-01T21:21:55.039Z,97858.58
2023-05-01T21:24:25.499Z,97861.38
2023-05-01T21:26:54.695Z,97863.85
2023-05-01T21:29:22.578Z,97864.27
2023-05-01T21:31:50.683Z,97869.25
2023-05-01T21:34:19.842Z,97868.36
2023-05-01T21:36:49.351Z,97878.45
2023-05-01T21:39:17.389Z,97875.06
2023-05-01T21:41:48.762Z,97880.14
2023-05-01T21:44:17.482Z,97879.65
2023-05-01T21:46:45.399Z,97878.59
2023-05-01T21:49:17.053Z,97889.30
2023-05-01T21:51:45.093Z,97886.23
2023-05-01T21:54:13.611Z,97878.66
2023-05-01T21:56:42.582Z,97885.88
2023-05-01T21:59:11.610Z,97885.41
2023-05-01T22:01:41.299Z,97882.48
2023-05-01T22:04:09.491Z,97888.83
2023-05-01T22:06:37.521Z,97884.27
2023-05-01T22:09:05.529Z,97892.79
2023-05-01T22:11:33.397Z,97893.80
2023-05-01T22:14:02.138Z,97892.10
2023-05-01T22:16:30.031Z,97889.83
2023-05-01T22:18:57.959Z,97890.02
2023-05-01T22:21:25.815Z,97889.27
2023-05-01T22:23:53.713Z,97889.38
2023-05-01T22:26:21.554Z,97892.72
2023-05-01T22:28:50.208Z,97892.41
2023-05-01T22:31:18.278Z,97890.99
2023-05-01T22:33:46.535Z,97899.70
2023-05-01T22:36:14.442Z,97895.67
2023-05-01T22:38:42.406Z,97895.61
2023-05-01T22:41:10.779Z,97894.65
2023-05-01T22:43:39.645Z,97897.20
2023-05-01T22:46:07.593Z,97894.11
2023-05-01T22:48:35.537Z,97895.25
2023-05-01T22:51:03.508Z,97895.70
2023-05-01T22:53:31.473Z,97893.27
2023-05-01T22:55:59.319Z,97890.68
2023-05-01T22:58:27.192Z,97894.88
2023-05-01T23:00:55.090Z,97888.86
2023-05-01T23:03:23.196Z,97891.85
2023-05-01T23:05:51.144Z,97892.67
2023-05-01T23:08:19.034Z,97890.89
2023-05-01T23:10:46.945Z,97889.41
2023-05-01T23:13:19.106Z,97891.58
2023-05-01T23:15:47.727Z,97890.33
2023-05-01T23:18:33.977Z,97889.30
2023-05-01T23:21:02.703Z,97891.87
2023-05-01T23:23:34.788Z,97893.40
2023-05-01T23:26:02.799Z,97891.33
2023-05-01T23:28:30.754Z,97893.94
2023-05-01T23:31:03.453Z,97895.39
2023-05-01T23:33:38.011Z,97889.61
2023-05-01T23:36:13.005Z,97883.65
2023-05-01T23:38:41.100Z,97888.33
2023-05-01T23:41:09.798Z,97886.18
2023-05-01T23:43:38.697Z,97885.44
2023-05-01T23:46:07.615Z,97880.33
2023-05-01T23:48:36.059Z,97879.41
2023-05-01T23:51:04.134Z,97877.75
2023-05-01T23:53:32.203Z,97877.77
2023-05-01T23:56:00.097Z,97879.38
2023-05-01T23:58:28.010Z,97875.77
